Time;durP1;ratioP1;P1;durP2;ratioP2;P2;SDS_P1;SDS_P2;PMS_P1;PMS_P2;Temp;Humidity;BMP_temperature;BMP_pressure;BME280_temperature;BME280_humidity;BME280_pressure;Samples;Min_cycle;Max_cycle;Signal;HPM_P1;HPM_P2
2023/04/16 00:00:03;;;;;;;1.95;1.70;;;;;;;;;;5015284;28;20029;-56
2023/04/16 00:02:29;;;;;;;2.53;1.90;;;;;;;;;;5015564;28;20061;-57
2023/04/16 00:04:55;;;;;;;5.57;1.73;;;;;;;;;;5014823;28;20030;-57
2023/04/16 00:07:21;;;;;;;4.20;1.85;;;;;;;;;;5015309;28;20068;-57
2023/04/16 00:09:47;;;;;;;2.05;1.85;;;;;;;;;;5015250;28;20475;-57
2023/04/16 00:12:14;;;;;;;2.10;1.77;;;;;;;;;;5015609;28;20507;-56
2023/04/16 00:14:42;;;;;;;3.38;1.83;;;;;;;;;;5014997;28;20057;-55
2023/04/16 00:17:08;;;;;;;4.72;2.10;;;;;;;;;;5013081;28;20070;-56
2023/04/16 00:19:35;;;;;;;2.85;1.48;;;;;;;;;;5014395;28;20457;-55
2023/04/16 00:22:01;;;;;;;2.38;1.77;;;;;;;;;;5014502;28;20034;-57
2023/04/16 00:24:27;;;;;;;2.42;1.95;;;11.40;99.90;;;;;;5014033;28;20026;-54
2023/04/16 00:26:52;;;;;;;2.67;1.98;;;11.50;99.90;;;;;;5014264;28;20025;-57
2023/04/16 00:29:19;;;;;;;3.25;2.10;;;;;;;;;;5014448;28;20083;-54
2023/04/16 00:31:45;;;;;;;1.85;1.40;;;;;;;;;;4963494;28;20083;-58
2023/04/16 00:34:11;;;;;;;2.13;1.88;;;;;;;;;;5014523;28;20018;-56
2023/04/16 00:36:37;;;;;;;2.72;1.90;;;;;;;;;;5014057;28;20030;-56
2023/04/16 00:39:03;;;;;;;2.28;1.70;;;;;;;;;;5014258;28;20065;-57
2023/04/16 00:41:29;;;;;;;3.20;1.77;;;;;;;;;;5014102;28;20025;-55
2023/04/16 00:43:55;;;;;;;3.42;1.77;;;11.40;99.90;;;;;;5013755;28;20029;-56
2023/04/16 00:46:24;;;;;;;2.50;1.40;;;11.10;99.90;;;;;;5014226;28;20042;-55
2023/04/16 00:48:51;;;;;;;2.22;2.03;;;11.10;99.90;;;;;;5011372;28;20030;-56
2023/04/16 00:51:19;;;;;;;2.00;1.30;;;11.00;99.90;;;;;;5014026;28;20065;-55
2023/04/16 00:53:45;;;;;;;1.90;1.42;;;11.00;99.90;;;;;;5014074;28;20029;-56
2023/04/16 00:56:12;;;;;;;2.38;1.77;;;11.00;99.90;;;;;;5013611;28;20065;-55
2023/04/16 00:58:39;;;;;;;1.88;1.70;;;11.00;99.90;;;;;;5013919;28;20592;-55
2023/04/16 01:01:05;;;;;;;3.20;1.88;;;10.90;99.90;;;;;;5013550;28;20053;-56
2023/04/16 01:03:39;;;;;;;2.08;1.85;;;10.90;99.90;;;;;;5014010;28;20022;-56
2023/04/16 01:06:06;;;;;;;2.47;1.63;;;10.80;99.90;;;;;;5013255;28;20177;-54
2023/04/16 01:08:32;;;;;;;1.75;1.48;;;10.80;99.90;;;;;;5013512;28;20020;-54
2023/04/16 01:10:58;;;;;;;2.80;1.67;;;10.90;99.90;;;;;;5013493;28;20053;-55
2023/04/16 01:13:24;;;;;;;2.45;1.48;;;10.80;99.90;;;;;;5013442;28;20096;-55
2023/04/16 01:15:50;;;;;;;2.22;1.65;;;10.80;99.90;;;;;;5013739;28;20026;-55
2023/04/16 01:18:17;;;;;;;3.40;1.60;;;10.80;99.90;;;;;;5013564;28;20085;-56
2023/04/16 01:20:44;;;;;;;4.32;1.20;;;10.90;99.90;;;;;;5013361;28;20476;-54
2023/04/16 01:23:10;;;;;;;2.38;1.80;;;10.80;99.90;;;;;;5013155;28;20036;-54
2023/04/16 01:25:36;;;;;;;2.50;1.80;;;10.80;99.90;;;;;;5013330;28;20112;-56
2023/04/16 01:28:02;;;;;;;2.78;2.08;;;10.90;99.90;;;;;;5013137;28;20045;-56
2023/04/16 01:30:28;;;;;;;2.53;1.40;;;10.70;99.90;;;;;;5013313;28;20030;-55
2023/04/16 01:32:54;;;;;;;2.03;1.55;;;10.80;99.90;;;;;;4978993;28;20034;-55
2023/04/16 01:35:20;;;;;;;3.28;1.75;;;10.80;99.90;;;;;;5013132;28;20073;-57
2023/04/16 01:37:45;;;;;;;2.88;1.92;;;10.80;99.90;;;;;;4961158;28;20138;-54
2023/04/16 01:40:11;;;;;;;2.30;1.92;;;10.80;99.90;;;;;;5013066;28;20026;-55
2023/04/16 01:42:37;;;;;;;2.45;1.58;;;10.90;99.90;;;;;;5013136;28;20493;-56
2023/04/16 01:45:04;;;;;;;1.65;1.38;;;10.90;99.90;;;;;;5013281;28;20100;-56
2023/04/16 01:47:30;;;;;;;3.25;1.88;;;10.90;99.90;;;;;;5012437;28;20022;-56
2023/04/16 01:49:56;;;;;;;2.53;1.75;;;10.90;99.90;;;;;;5013302;28;20089;-56
2023/04/16 01:52:21;;;;;;;2.88;1.60;;;10.90;99.90;;;;;;5013492;28;20022;-57
2023/04/16 01:54:47;;;;;;;2.20;1.80;;;10.90;99.90;;;;;;5004153;28;20470;-56
2023/04/16 01:57:13;;;;;;;1.40;1.30;;;10.80;99.90;;;;;;5002822;28;20034;-56
2023/04/16 01:59:39;;;;;;;1.33;1.20;;;10.60;99.90;;;;;;5002412;28;20022;-55
2023/04/16 02:02:11;;;;;;;2.60;1.80;;;10.50;99.90;;;;;;5004020;28;20034;-57
2023/04/16 02:04:41;;;;;;;1.65;1.40;;;10.60;99.90;;;;;;5003316;28;20073;-57
2023/04/16 02:07:07;;;;;;;2.83;2.05;;;10.70;99.90;;;;;;5001900;28;20539;-56
2023/04/16 02:09:37;;;;;;;2.60;2.08;;;10.70;99.90;;;;;;5003422;28;20105;-57
2023/04/16 02:12:03;;;;;;;1.50;1.40;;;10.60;99.90;;;;;;5009019;28;20052;-54
2023/04/16 02:14:30;;;;;;;2.15;1.35;;;10.60;99.90;;;;;;4997349;28;20466;-54
2023/04/16 02:16:56;;;;;;;1.98;1.63;;;10.40;99.90;;;;;;5016680;28;20072;-55
2023/04/16 02:19:22;;;;;;;2.83;1.98;;;10.30;99.90;;;;;;5016634;28;20046;-57
2023/04/16 02:21:50;;;;;;;1.67;1.58;;;10.40;99.90;;;;;;5013775;28;20549;-55
2023/04/16 02:24:15;;;;;;;2.33;1.70;;;10.50;99.90;;;;;;5016611;28;20065;-54
2023/04/16 02:26:41;;;;;;;2.38;1.13;;;10.50;99.90;;;;;;5016832;28;20038;-57
2023/04/16 02:29:07;;;;;;;1.55;1.10;;;10.60;99.90;;;;;;4996072;28;20041;-55
2023/04/16 02:31:32;;;;;;;2.70;1.52;;;10.60;99.90;;;;;;4998371;28;20045;-57
2023/04/16 02:33:58;;;;;;;2.72;1.38;;;10.50;99.90;;;;;;5016575;28;20022;-56
2023/04/16 02:36:24;;;;;;;1.83;1.27;;;10.50;99.90;;;;;;5016268;28;20048;-55
2023/04/16 02:38:50;;;;;;;2.50;1.85;;;10.50;99.90;;;;;;5016505;28;20076;-55
2023/04/16 02:41:16;;;;;;;2.92;1.73;;;10.50;99.90;;;;;;5016126;28;20033;-55
2023/04/16 02:43:42;;;;;;;1.60;1.25;;;10.60;99.90;;;;;;5016738;28;20064;-55
2023/04/16 02:46:07;;;;;;;2.83;1.70;;;10.60;99.90;;;;;;5016774;28;20022;-57
2023/04/16 02:48:33;;;;;;;2.17;1.27;;;10.70;99.90;;;;;;5016633;28;20089;-56
2023/04/16 02:50:59;;;;;;;1.85;1.50;;;10.80;99.90;;;;;;5015651;28;20057;-57
2023/04/16 02:53:25;;;;;;;2.00;1.50;;;10.70;99.90;;;;;;5016532;28;20034;-55
2023/04/16 02:55:52;;;;;;;2.05;1.45;;;10.80;99.90;;;;;;5016649;28;20030;-55
2023/04/16 02:58:19;;;;;;;1.42;1.33;;;10.80;99.90;;;;;;5016260;28;20037;-56
2023/04/16 03:00:45;;;;;;;1.00;1.00;;;10.80;99.90;;;;;;4994615;28;20448;-56
2023/04/16 03:03:11;;;;;;;1.20;1.10;;;;;;;;;;4986885;28;20042;-57
2023/04/16 03:05:37;;;;;;;2.15;1.45;;;9.30;99.90;;;;;;4994751;28;20073;-57
2023/04/16 03:08:03;;;;;;;2.40;1.98;;;9.20;99.90;;;;;;4994795;28;20470;-56
2023/04/16 03:10:29;;;;;;;2.58;1.55;;;9.50;99.90;;;;;;4994543;28;20490;-55
2023/04/16 03:12:55;;;;;;;1.50;1.40;;;9.30;99.90;;;;;;4994636;28;20030;-55
2023/04/16 03:15:20;;;;;;;1.48;1.20;;;8.90;99.90;;;;;;4994636;28;20038;-55
2023/04/16 03:17:46;;;;;;;2.00;1.08;;;;;;;;;;4994331;28;20054;-55
2023/04/16 03:20:13;;;;;;;2.47;1.55;;;8.60;99.90;;;;;;4994454;28;20035;-57
2023/04/16 03:22:39;;;;;;;2.10;1.52;;;8.40;99.90;;;;;;4994223;28;20472;-54
2023/04/16 03:25:06;;;;;;;2.42;1.40;;;8.60;99.90;;;;;;4993202;28;20482;-55
2023/04/16 03:27:32;;;;;;;1.65;1.52;;;;;;;;;;4962108;28;20429;-56
2023/04/16 03:29:59;;;;;;;2.33;1.58;;;;;;;;;;4994525;28;20030;-57
2023/04/16 03:32:24;;;;;;;4.68;2.63;;;9.90;99.90;;;;;;5011301;28;20037;-55
2023/04/16 03:34:50;;;;;;;2.58;1.50;;;10.00;99.90;;;;;;5015673;28;20117;-57
2023/04/16 03:37:16;;;;;;;4.47;2.95;;;10.10;99.90;;;;;;5015777;28;20065;-55
2023/04/16 03:39:42;;;;;;;2.08;1.83;;;10.20;99.90;;;;;;5015875;28;20030;-57
2023/04/16 03:42:07;;;;;;;2.17;1.95;;;10.20;99.90;;;;;;4997893;28;20402;-54
2023/04/16 03:44:33;;;;;;;3.72;2.70;;;10.20;99.90;;;;;;5016145;28;20116;-54
2023/04/16 03:46:59;;;;;;;3.47;2.17;;;10.30;99.90;;;;;;4997339;28;20034;-54
2023/04/16 03:49:25;;;;;;;5.78;2.72;;;10.30;99.90;;;;;;5015651;28;20030;-56
2023/04/16 03:51:51;;;;;;;7.55;3.78;;;;;;;;;;4978485;28;20038;-56
2023/04/16 03:54:17;;;;;;;3.15;1.92;;;;;;;;;;4981328;28;20041;-54
2023/04/16 03:56:43;;;;;;;2.85;2.05;;;;;;;;;;5015756;28;20034;-57
2023/04/16 03:59:09;;;;;;;2.17;1.85;;;;;;;;;;5015724;28;20065;-56
2023/04/16 04:01:36;;;;;;;1.85;1.60;;;;;;;;;;5015130;28;20032;-57
2023/04/16 04:04:02;;;;;;;2.55;1.95;;;;;;;;;;4981282;28;20117;-55
2023/04/16 04:06:28;;;;;;;2.35;1.60;;;;;;;;;;5015847;28;20022;-55
2023/04/16 04:08:54;;;;;;;1.50;1.40;;;11.00;99.90;;;;;;5015020;28;20136;-54
2023/04/16 04:11:20;;;;;;;1.95;1.30;;;10.90;99.90;;;;;;4997047;28;20112;-54
2023/04/16 04:13:45;;;;;;;1.23;1.02;;;10.90;99.90;;;;;;5015049;28;20473;-54
2023/04/16 04:16:11;;;;;;;2.00;1.38;;;10.90;99.90;;;;;;5014809;28;20037;-55
2023/04/16 04:18:37;;;;;;;1.10;1.00;;;;;;;;;;5014807;28;20030;-57
2023/04/16 04:21:07;;;;;;;1.85;1.40;;;;;;;;;;5015000;28;20041;-57
2023/04/16 04:23:33;;;;;;;1.90;1.42;;;;;;;;;;5014970;28;20026;-55
2023/04/16 04:26:02;;;;;;;2.08;1.27;;;11.10;99.90;;;;;;5006710;28;20030;-54
2023/04/16 04:28:28;;;;;;;0.68;0.65;;;11.00;99.90;;;;;;4995349;28;20034;-54
2023/04/16 04:30:54;;;;;;;1.83;1.20;;;10.80;99.90;;;;;;4995812;28;20030;-57
2023/04/16 04:33:20;;;;;;;0.93;0.90;;;10.80;99.90;;;;;;4955560;28;20393;-54
2023/04/16 04:35:45;;;;;;;1.20;1.10;;;10.80;99.90;;;;;;5014186;28;20030;-55
2023/04/16 04:38:11;;;;;;;6.18;1.60;;;10.70;99.90;;;;;;5014551;28;20034;-56
2023/04/16 04:40:37;;;;;;;1.52;1.42;;;10.80;99.90;;;;;;5014679;28;20030;-57
2023/04/16 04:43:03;;;;;;;3.10;1.73;;;10.70;99.90;;;;;;5008185;28;20030;-56
2023/04/16 04:45:29;;;;;;;1.65;1.55;;;10.70;99.90;;;;;;5019167;28;20362;-54
2023/04/16 04:47:55;;;;;;;1.95;1.35;;;10.80;99.90;;;;;;5014593;28;20088;-54
2023/04/16 04:50:21;;;;;;;1.85;1.08;;;10.80;99.90;;;;;;5031980;28;20029;-55
2023/04/16 04:52:46;;;;;;;1.80;1.42;;;10.80;99.90;;;;;;5034146;28;20033;-55
2023/04/16 04:55:14;;;;;;;1.48;1.33;;;10.70;99.90;;;;;;5016405;28;20485;-54
2023/04/16 04:57:40;;;;;;;2.15;1.50;;;;;;;;;;5034021;28;20044;-54
2023/04/16 05:00:07;;;;;;;1.20;1.10;;;;;;;;;;5018241;28;20037;-57
2023/04/16 05:02:33;;;;;;;0.98;0.80;;;;;;;;;;4980530;28;20482;-54
2023/04/16 05:04:59;;;;;;;1.08;1.00;;;10.90;99.90;;;;;;4963637;28;20080;-57
2023/04/16 05:07:25;;;;;;;1.00;1.00;;;10.60;99.90;;;;;;5014205;28;20054;-57
2023/04/16 05:09:50;;;;;;;1.10;1.00;;;10.40;99.90;;;;;;5014133;28;20172;-54
2023/04/16 05:12:16;;;;;;;1.23;1.05;;;10.30;99.90;;;;;;5014475;28;20053;-55
2023/04/16 05:14:42;;;;;;;1.20;1.10;;;10.40;99.90;;;;;;5022535;28;20037;-54
2023/04/16 05:17:09;;;;;;;2.05;1.25;;;10.40;99.90;;;;;;5032133;28;20053;-57
2023/04/16 05:19:35;;;;;;;1.02;0.95;;;10.50;99.90;;;;;;5014356;28;20030;-56
2023/04/16 05:22:01;;;;;;;0.60;0.60;;;10.60;99.90;;;;;;5013776;28;20037;-54
2023/04/16 05:24:28;;;;;;;1.35;1.00;;;10.50;99.90;;;;;;5013888;28;20377;-56
2023/04/16 05:26:53;;;;;;;1.70;1.20;;;10.40;99.90;;;;;;5014161;28;20365;-57
2023/04/16 05:29:19;;;;;;;1.08;0.68;;;10.60;99.90;;;;;;5023261;28;20104;-55
2023/04/16 05:31:45;;;;;;;1.17;1.08;;;10.70;99.90;;;;;;5033557;28;20029;-57
2023/04/16 05:34:11;;;;;;;1.10;1.00;;;10.80;99.90;;;;;;5032645;28;20377;-56
2023/04/16 05:36:36;;;;;;;3.03;0.98;;;10.70;99.90;;;;;;5013826;28;20465;-55
2023/04/16 05:39:02;;;;;;;1.23;0.90;;;10.70;99.90;;;;;;5030285;28;20075;-56
2023/04/16 05:41:28;;;;;;;1.40;1.20;;;10.70;99.90;;;;;;5033300;28;20055;-57
2023/04/16 05:43:54;;;;;;;1.77;1.00;;;;;;;;;;5026289;28;20029;-58
2023/04/16 05:46:20;;;;;;;0.80;0.73;;;11.90;99.90;;;;;;5013814;28;20050;-55
2023/04/16 05:48:46;;;;;;;1.58;1.48;;;;;;;;;;5026665;28;20505;-57
2023/04/16 05:51:12;;;;;;;1.10;1.00;;;;;;;;;;5008279;28;20068;-56
2023/04/16 05:53:38;;;;;;;1.55;1.45;;;11.20;99.90;;;;;;5013512;28;20085;-56
2023/04/16 05:56:03;;;;;;;0.85;0.82;;;11.10;99.90;;;;;;5013592;28;20493;-56
2023/04/16 05:58:29;;;;;;;1.55;1.40;;;11.00;99.90;;;;;;5013554;28;20029;-55
2023/04/16 06:00:55;;;;;;;1.55;1.45;;;11.20;99.90;;;;;;5006118;28;20418;-56
2023/04/16 06:03:20;;;;;;;1.95;1.70;;;11.30;99.90;;;;;;4993597;28;20109;-55
2023/04/16 06:05:46;;;;;;;3.35;1.45;;;11.50;99.90;;;;;;5003155;28;20469;-54
2023/04/16 06:08:12;;;;;;;1.75;1.15;;;11.20;99.90;;;;;;4978741;28;20038;-56
2023/04/16 06:10:38;;;;;;;2.33;1.80;;;11.30;99.90;;;;;;4962395;28;20033;-55
2023/04/16 06:13:04;;;;;;;1.13;1.02;;;11.40;99.90;;;;;;5012240;28;20018;-57
2023/04/16 06:15:29;;;;;;;1.27;1.17;;;11.50;99.90;;;;;;5012779;28;20030;-55
2023/04/16 06:17:55;;;;;;;1.48;1.15;;;11.30;99.90;;;;;;5014520;28;20093;-57
2023/04/16 06:20:21;;;;;;;2.63;1.70;;;11.30;99.90;;;;;;4985386;28;20104;-57
2023/04/16 06:22:47;;;;;;;1.80;1.15;;;11.30;99.90;;;;;;5029333;28;20033;-55
2023/04/16 06:25:12;;;;;;;1.13;1.00;;;11.40;99.90;;;;;;4991507;28;20113;-55
2023/04/16 06:27:38;;;;;;;1.95;1.02;;;11.70;99.90;;;;;;4970380;28;20066;-55
2023/04/16 06:30:05;;;;;;;1.92;1.52;;;11.60;99.90;;;;;;5014644;28;20034;-55
2023/04/16 06:32:31;;;;;;;3.13;1.77;;;;;;;;;;5012840;28;20026;-58
2023/04/16 06:34:57;;;;;;;2.78;1.38;;;;;;;;;;5012752;28;20048;-58
2023/04/16 06:37:23;;;;;;;1.38;1.20;;;;;;;;;;5012504;28;20076;-58
2023/04/16 06:39:49;;;;;;;1.73;1.40;;;;;;;;;;5012662;28;20458;-57
2023/04/16 06:42:15;;;;;;;2.13;1.40;;;;;;;;;;5012684;28;20106;-56
2023/04/16 06:44:41;;;;;;;1.15;0.98;;;12.50;99.90;;;;;;5012749;28;20026;-56
2023/04/16 06:47:07;;;;;;;2.05;1.10;;;;;;;;;;5012435;28;20014;-56
2023/04/16 06:49:33;;;;;;;4.20;1.80;;;;;;;;;;5019342;28;20034;-54
2023/04/16 06:51:59;;;;;;;1.55;1.38;;;12.80;99.90;;;;;;4962549;28;20045;-57
2023/04/16 06:54:25;;;;;;;1.27;1.17;;;12.80;99.90;;;;;;4996211;28;20037;-58
2023/04/16 06:56:50;;;;;;;2.10;1.45;;;12.70;99.90;;;;;;4961415;28;20033;-57
2023/04/16 06:59:16;;;;;;;2.17;1.77;;;12.70;99.90;;;;;;5013361;28;20034;-55
2023/04/16 07:01:42;;;;;;;4.13;1.90;;;;;;;;;;5013026;28;20053;-55
2023/04/16 07:04:08;;;;;;;1.48;1.38;;;13.10;99.90;;;;;;5012956;28;20120;-56
2023/04/16 07:06:34;;;;;;;1.38;1.20;;;13.00;99.90;;;;;;5015815;28;20101;-56
2023/04/16 07:09:00;;;;;;;1.27;1.17;;;;;;;;;;5015885;28;20473;-55
2023/04/16 07:11:26;;;;;;;2.08;1.42;;;;;;;;;;5012700;28;20034;-57
2023/04/16 07:13:52;;;;;;;1.35;1.25;;;;;;;;;;5011666;28;20109;-58
2023/04/16 07:16:18;;;;;;;3.13;1.98;;;14.00;99.90;;;;;;5003641;28;20038;-58
2023/04/16 07:18:44;;;;;;;3.30;1.52;;;14.10;99.90;;;;;;4996316;28;20409;-56
2023/04/16 07:21:09;;;;;;;1.42;1.33;;;14.30;99.90;;;;;;4996412;28;20490;-58
2023/04/16 07:23:35;;;;;;;1.45;1.35;;;14.10;99.90;;;;;;4978305;28;20043;-56
2023/04/16 07:26:01;;;;;;;1.40;1.27;;;14.20;99.90;;;;;;4996686;28;20363;-55
2023/04/16 07:28:26;;;;;;;1.23;1.08;;;14.00;99.90;;;;;;4996263;28;20385;-52
2023/04/16 07:30:52;;;;;;;1.73;1.55;;;13.90;99.90;;;;;;4962434;28;20045;-50
2023/04/16 07:33:18;;;;;;;1.80;1.40;;;14.30;99.90;;;;;;4997205;28;20048;-56
2023/04/16 07:35:44;;;;;;;2.35;1.15;;;14.00;99.90;;;;;;4996935;28;20034;-54
2023/04/16 07:38:10;;;;;;;1.48;1.15;;;14.30;99.90;;;;;;5008390;28;20433;-58
2023/04/16 07:40:36;;;;;;;1.27;1.17;;;14.30;99.90;;;;;;5013360;28;20432;-56
2023/04/16 07:43:02;;;;;;;1.23;1.13;;;;;;;;;;5010799;28;20018;-54
2023/04/16 07:45:28;;;;;;;1.95;1.52;;;15.60;99.90;;;;;;5008231;28;20062;-58
2023/04/16 07:47:53;;;;;;;2.08;1.38;;;14.50;99.90;;;;;;5013069;28;20069;-59
2023/04/16 07:50:19;;;;;;;1.60;1.27;;;14.40;99.90;;;;;;5018060;28;20026;-59
2023/04/16 07:52:46;;;;;;;1.52;1.35;;;14.60;99.90;;;;;;5011736;28;20034;-61
2023/04/16 07:55:11;;;;;;;1.60;1.30;;;14.90;99.90;;;;;;4998797;28;20030;-60
2023/04/16 07:57:37;;;;;;;1.70;1.60;;;14.90;99.90;;;;;;5016793;28;20401;-60
2023/04/16 08:00:03;;;;;;;1.33;1.13;;;15.20;99.90;;;;;;5012780;28;20466;-59
2023/04/16 08:02:30;;;;;;;2.45;1.13;;;;;;;;;;5014362;28;20473;-58
2023/04/16 08:04:55;;;;;;;2.50;1.65;;;15.50;99.90;;;;;;5011090;28;21370;-57
2023/04/16 08:07:21;;;;;;;2.08;1.17;;;15.70;99.90;;;;;;4986600;28;20038;-60
2023/04/16 08:09:48;;;;;;;1.30;1.05;;;15.70;99.90;;;;;;4984519;28;20451;-58
2023/04/16 08:12:16;;;;;;;2.15;1.42;;;15.60;99.90;;;;;;4983842;28;20681;-59
2023/04/16 08:14:42;;;;;;;3.03;1.60;;;;;;;;;;4988636;28;20089;-57
2023/04/16 08:17:07;;;;;;;1.20;1.10;;;15.90;99.90;;;;;;4990688;28;20108;-60
2023/04/16 08:19:33;;;;;;;1.85;1.42;;;;;;;;;;4992232;28;20470;-58
2023/04/16 08:21:59;;;;;;;1.67;1.48;;;;;;;;;;4975849;28;20121;-57
2023/04/16 08:24:25;;;;;;;1.13;0.77;;;16.20;99.90;;;;;;4991700;28;20034;-58
2023/04/16 08:26:51;;;;;;;1.55;1.10;;;16.00;99.90;;;;;;4992543;28;20039;-58
2023/04/16 08:29:17;;;;;;;3.15;1.75;;;15.80;99.90;;;;;;4990067;28;20026;-59
2023/04/16 08:31:43;;;;;;;1.70;1.45;;;15.90;99.90;;;;;;4991021;28;20044;-59
2023/04/16 08:34:10;;;;;;;1.50;1.40;;;16.00;99.90;;;;;;4975082;28;20486;-59
2023/04/16 08:36:36;;;;;;;1.65;1.55;;;16.20;99.90;;;;;;4990758;28;20414;-58
2023/04/16 08:39:02;;;;;;;2.22;1.23;;;;;;;;;;5007961;28;20041;-60
2023/04/16 08:41:31;;;;;;;1.75;1.33;;;16.20;99.90;;;;;;5013249;28;20038;-59
2023/04/16 08:44:02;;;;;;;1.42;1.23;;;16.20;99.90;;;;;;5012606;28;20087;-59
2023/04/16 08:46:29;;;;;;;0.90;0.77;;;;;;;;;;4987853;28;20069;-58
2023/04/16 08:48:58;;;;;;;2.35;1.58;;;;;;;;;;5003900;28;20120;-60
2023/04/16 08:51:26;;;;;;;1.70;1.42;;;;;;;;;;4995009;28;20401;-57
2023/04/16 08:53:52;;;;;;;1.80;1.60;;;16.90;99.90;;;;;;5005330;28;20091;-58
2023/04/16 08:56:23;;;;;;;1.48;1.33;;;;;;;;;;4995469;28;20375;-57
2023/04/16 08:58:50;;;;;;;2.40;1.42;;;17.40;99.90;;;;;;5012763;28;20370;-60
2023/04/16 09:01:17;;;;;;;2.42;1.75;;;;;;;;;;5007992;28;20037;-57
2023/04/16 09:03:47;;;;;;;2.65;1.63;;;17.90;99.90;;;;;;5013101;28;20034;-56
2023/04/16 09:06:15;;;;;;;3.38;1.70;;;17.70;99.90;;;;;;5013063;28;20047;-56
2023/04/16 09:08:41;;;;;;;1.48;1.38;;;;;;;;;;5013186;28;20418;-60
2023/04/16 09:11:07;;;;;;;2.78;2.10;;;18.20;99.90;;;;;;5003302;28;20029;-58
2023/04/16 09:13:33;;;;;;;1.70;1.50;;;;;;;;;;4993270;28;20027;-58
2023/04/16 09:15:59;;;;;;;1.73;1.60;;;;;;;;;;4993128;28;20153;-58
2023/04/16 09:18:26;;;;;;;1.95;1.67;;;;;;;;;;4993253;28;20382;-59
2023/04/16 09:20:55;;;;;;;1.55;1.45;;;;;;;;;;4993263;28;20045;-59
2023/04/16 09:23:21;;;;;;;2.60;1.80;;;;;;;;;;4974581;28;20074;-59
2023/04/16 09:25:47;;;;;;;1.88;1.63;;;;;;;;;;4993257;28;20026;-59
2023/04/16 09:28:33;;;;;;;1.73;1.60;;;;;;;;;;4993547;28;20538;-57
2023/04/16 09:31:09;;;;;;;1.63;1.13;;;;;;;;;;5012711;28;20034;-58
2023/04/16 09:33:35;;;;;;;1.60;1.50;;;;;;;;;;5012741;28;20026;-60
2023/04/16 09:36:01;;;;;;;2.50;1.63;;;18.90;99.90;;;;;;5012657;28;20145;-60
2023/04/16 09:38:46;;;;;;;1.33;1.23;;;19.50;99.90;;;;;;5012467;28;20042;-57
2023/04/16 09:41:15;;;;;;;2.10;1.50;;;18.90;99.90;;;;;;5012581;28;20108;-59
2023/04/16 09:43:41;;;;;;;1.92;1.58;;;;;;;;;;5012678;28;20446;-57
2023/04/16 09:46:11;;;;;;;2.55;1.75;;;19.80;99.90;;;;;;5004907;28;20474;-59
2023/04/16 09:48:37;;;;;;;2.45;1.55;;;20.20;99.90;;;;;;5007916;28;20029;-60
2023/04/16 09:51:05;;;;;;;3.40;2.22;;;;;;;;;;5028865;28;20040;-58
2023/04/16 09:53:31;;;;;;;1.50;1.40;;;20.70;99.90;;;;;;5033333;28;20112;-57
2023/04/16 09:56:02;;;;;;;2.05;1.70;;;20.60;99.90;;;;;;5033535;28;20036;-59
2023/04/16 09:58:28;;;;;;;2.45;1.92;;;20.40;99.90;;;;;;5032913;28;20481;-59
2023/04/16 10:01:02;;;;;;;1.80;1.48;;;20.30;99.90;;;;;;5033268;28;20029;-59
2023/04/16 10:03:35;;;;;;;1.88;1.75;;;20.40;99.90;;;;;;5033148;28;20021;-56
2023/04/16 10:06:08;;;;;;;2.05;1.67;;;20.80;99.90;;;;;;5033275;28;20030;-58
2023/04/16 10:08:35;;;;;;;1.98;1.45;;;20.50;99.90;;;;;;5033135;28;20025;-57
2023/04/16 10:11:01;;;;;;;1.25;1.13;;;20.60;99.90;;;;;;5033267;28;20349;-57
2023/04/16 10:13:27;;;;;;;1.70;1.25;;;19.70;99.90;;;;;;5019245;28;20049;-60
2023/04/16 10:15:56;;;;;;;2.20;1.90;;;19.50;99.90;;;;;;5013376;28;20036;-56
2023/04/16 10:18:22;;;;;;;1.90;1.70;;;19.40;99.90;;;;;;4962739;28;20046;-59
2023/04/16 10:20:49;;;;;;;2.08;1.50;;;19.80;99.90;;;;;;5013320;28;20485;-57
2023/04/16 10:23:15;;;;;;;1.50;1.40;;;19.90;99.90;;;;;;5008565;28;20037;-60
2023/04/16 10:25:43;;;;;;;2.90;1.70;;;20.20;99.90;;;;;;4975826;28;20046;-58
2023/04/16 10:28:09;;;;;;;1.65;1.45;;;19.60;99.90;;;;;;4994557;28;20061;-57
2023/04/16 10:30:36;;;;;;;2.45;1.38;;;19.80;99.90;;;;;;5012051;28;20022;-55
2023/04/16 10:33:04;;;;;;;1.00;0.90;;;20.30;99.90;;;;;;5013241;28;20053;-59
2023/04/16 10:35:30;;;;;;;3.45;1.67;;;19.90;99.90;;;;;;5006134;28;20092;-58
2023/04/16 10:38:23;;;;;;;3.25;0.68;;;20.10;99.90;;;;;;4997285;28;20049;-56
2023/04/16 10:40:49;;;;;;;1.90;1.40;;;19.80;99.90;;;;;;5002399;28;20030;-59
2023/04/16 10:43:18;;;;;;;1.70;1.30;;;20.30;99.90;;;;;;5016970;28;20085;-57
2023/04/16 10:45:46;;;;;;;1.40;1.13;;;20.00;99.90;;;;;;5013834;28;20054;-58
2023/04/16 10:48:13;;;;;;;1.75;1.20;;;19.90;99.90;;;;;;5005991;28;20113;-58
2023/04/16 10:50:40;;;;;;;1.33;1.08;;;20.10;99.90;;;;;;5013723;28;20028;-58
2023/04/16 10:53:20;;;;;;;1.25;0.75;;;;;;;;;;5016274;28;20053;-57
2023/04/16 10:55:56;;;;;;;1.42;1.20;;;;;;;;;;5014374;28;20033;-59
2023/04/16 10:58:34;;;;;;;1.15;1.02;;;;;;;;;;5015241;28;20073;-56
2023/04/16 11:01:01;;;;;;;3.20;1.10;;;;;;;;;;5008225;28;20061;-58
2023/04/16 11:03:31;;;;;;;1.45;1.25;;;;;;;;;;4996919;28;20061;-57
2023/04/16 11:06:10;;;;;;;0.85;0.85;;;;;;;;;;4997131;28;20030;-59
2023/04/16 11:08:38;;;;;;;2.08;1.30;;;;;;;;;;4996585;28;20094;-58
2023/04/16 11:11:07;;;;;;;1.88;1.50;;;19.90;99.90;;;;;;4996834;28;20034;-59
2023/04/16 11:13:35;;;;;;;1.77;0.82;;;19.90;99.90;;;;;;4996832;28;20033;-59
2023/04/16 11:16:01;;;;;;;1.33;1.10;;;20.20;99.90;;;;;;5013000;28;20389;-56
2023/04/16 11:18:27;;;;;;;1.45;1.35;;;20.10;99.90;;;;;;5012994;28;20039;-59
2023/04/16 11:20:53;;;;;;;1.38;1.05;;;20.30;99.90;;;;;;5005705;28;20017;-56
2023/04/16 11:23:18;;;;;;;1.63;1.35;;;20.30;99.90;;;;;;5006829;28;20062;-56
2023/04/16 11:25:44;;;;;;;1.67;0.93;;;20.20;99.90;;;;;;5012990;28;20520;-57
2023/04/16 11:28:10;;;;;;;0.93;0.93;;;20.20;99.90;;;;;;5021341;28;20033;-57
2023/04/16 11:30:38;;;;;;;1.42;0.98;;;20.40;99.90;;;;;;5026839;28;20029;-58
2023/04/16 11:33:10;;;;;;;1.10;1.00;;;20.70;99.90;;;;;;5019157;28;20022;-55
2023/04/16 11:35:40;;;;;;;1.42;1.00;;;20.80;99.90;;;;;;5015221;28;20109;-55
2023/04/16 11:38:06;;;;;;;1.25;0.90;;;20.90;99.90;;;;;;4980777;28;20045;-56
2023/04/16 11:40:32;;;;;;;1.08;0.98;;;21.10;99.90;;;;;;5015664;28;20030;-58
2023/04/16 11:43:27;;;;;;;1.08;0.98;;;21.20;99.90;;;;;;5015801;28;20026;-59
2023/04/16 11:46:02;;;;;;;1.15;0.90;;;21.30;99.90;;;;;;4937382;29;20105;-55
2023/04/16 11:48:54;;;;;;;1.98;1.35;;;21.20;99.90;;;;;;4943191;29;20031;-57
2023/04/16 11:51:22;;;;;;;1.50;1.30;;;20.90;99.90;;;;;;4945874;29;20140;-58
2023/04/16 11:53:52;;;;;;;2.55;1.50;;;20.70;99.90;;;;;;4928181;29;20281;-57
2023/04/16 11:56:28;;;;;;;1.15;1.05;;;20.40;99.90;;;;;;4955252;28;20039;-59
2023/04/16 11:59:12;;;;;;;1.38;1.00;;;20.50;99.90;;;;;;4940723;29;20639;-59
2023/04/16 12:01:40;;;;;;;0.65;0.65;;;20.70;99.90;;;;;;4954185;29;20113;-56
2023/04/16 12:04:06;;;;;;;1.55;1.00;;;20.60;99.90;;;;;;4954924;29;20047;-58
2023/04/16 12:06:32;;;;;;;2.00;1.40;;;20.70;99.90;;;;;;4923032;29;20450;-58
2023/04/16 12:08:59;;;;;;;0.95;0.90;;;20.30;99.90;;;;;;4954838;28;20035;-55
2023/04/16 12:11:41;;;;;;;1.70;1.42;;;20.20;99.90;;;;;;4954782;29;20102;-57
2023/04/16 12:14:10;;;;;;;1.95;1.40;;;20.40;99.90;;;;;;4938478;29;20410;-58
2023/04/16 12:16:36;;;;;;;1.83;1.10;;;20.00;99.90;;;;;;4954390;29;20075;-58
2023/04/16 12:19:03;;;;;;;1.50;1.10;;;20.20;99.90;;;;;;4954602;29;20081;-56
2023/04/16 12:21:39;;;;;;;2.53;1.55;;;20.00;99.90;;;;;;4962019;28;20038;-60
2023/04/16 12:24:06;;;;;;;1.05;0.93;;;;;;;;;;5013293;28;20037;-55
2023/04/16 12:26:45;;;;;;;2.78;1.42;;;;;;;;;;5015087;28;20052;-59
2023/04/16 12:29:19;;;;;;;0.75;0.75;;;19.50;99.90;;;;;;5015062;28;20373;-58
2023/04/16 12:31:46;;;;;;;1.73;1.63;;;19.60;99.90;;;;;;5014699;28;20124;-59
2023/04/16 12:34:14;;;;;;;3.67;1.60;;;19.70;99.90;;;;;;5014882;28;20436;-58
2023/04/16 12:36:40;;;;;;;2.03;1.17;;;19.80;99.90;;;;;;5014818;28;20030;-59
2023/04/16 12:39:06;;;;;;;4.40;1.80;;;19.60;99.90;;;;;;5014539;28;20026;-58
2023/04/16 12:41:35;;;;;;;1.25;1.10;;;19.60;99.90;;;;;;5014292;28;20584;-58
2023/04/16 12:44:10;;;;;;;1.60;1.40;;;;;;;;;;5014429;28;20072;-57
2023/04/16 12:46:37;;;;;;;1.88;1.42;;;;;;;;;;4995105;28;20065;-56
2023/04/16 12:49:03;;;;;;;3.47;1.65;;;;;;;;;;4994874;28;20474;-59
2023/04/16 12:51:29;;;;;;;1.98;1.50;;;;;;;;;;5013076;28;20033;-58
2023/04/16 12:53:55;;;;;;;1.38;1.27;;;;;;;;;;5014502;28;20068;-57
2023/04/16 12:56:21;;;;;;;2.15;1.15;;;;;;;;;;5014162;28;20030;-59
2023/04/16 12:58:50;;;;;;;1.88;1.60;;;;;;;;;;4979542;28;20050;-58
2023/04/16 13:01:17;;;;;;;2.00;1.67;;;;;;;;;;5014083;28;20038;-56
2023/04/16 13:03:43;;;;;;;2.95;2.30;;;19.00;99.90;;;;;;5013647;28;20034;-58
2023/04/16 13:06:09;;;;;;;4.03;2.45;;;;;;;;;;5014323;28;20495;-59
2023/04/16 13:08:36;;;;;;;2.92;2.22;;;;;;;;;;4979645;28;20056;-56
2023/04/16 13:11:02;;;;;;;2.17;1.67;;;;;;;;;;5014114;28;20109;-56
2023/04/16 13:13:28;;;;;;;2.10;1.30;;;;;;;;;;5014234;28;20065;-58
2023/04/16 13:15:54;;;;;;;1.02;0.82;;;;;;;;;;5014012;28;20116;-59